sensor_id;sensor_type;location;lat;lon;timestamp;pressure;altitude;pressure_sealevel;temperature;humidity
21980;BME280;11154;48.558;9.234;2023-02-27T00:01:33;97829.31;;;4.17;52.08
21980;BME280;11154;48.558;9.234;2023-02-27T00:03:35;97828.00;;;4.11;52.10
21980;BME280;11154;48.558;9.234;2023-02-27T00:05:36;97816.53;;;4.12;52.13
21980;BME280;11154;48.558;9.234;2023-02-27T00:07:38;97822.72;;;4.11;52.27
21980;BME280;11154;48.558;9.234;2023-02-27T00:09:40;97819.97;;;4.13;52.51
21980;BME280;11154;48.558;9.234;2023-02-27T00:11:42;97815.66;;;4.12;52.34
21980;BME280;11154;48.558;9.234;2023-02-27T00:13:45;97819.84;;;4.14;52.55
21980;BME280;11154;48.558;9.234;2023-02-27T00:15:47;97823.63;;;4.23;52.14
21980;BME280;11154;48.558;9.234;2023-02-27T00:17:49;97827.81;;;4.25;51.78
21980;BME280;11154;48.558;9.234;2023-02-27T00:19:51;97819.38;;;4.20;51.38
21980;BME280;11154;48.558;9.234;2023-02-27T00:21:52;97817.50;;;4.22;51.57
21980;BME280;11154;48.558;9.234;2023-02-27T00:23:54;97822.75;;;4.22;51.94
21980;BME280;11154;48.558;9.234;2023-02-27T00:25:56;97825.50;;;4.21;51.41
21980;BME280;11154;48.558;9.234;2023-02-27T00:28:00;97828.03;;;4.22;52.00
21980;BME280;11154;48.558;9.234;2023-02-27T00:30:05;97820.84;;;4.24;51.78
21980;BME280;11154;48.558;9.234;2023-02-27T00:32:07;97813.91;;;4.23;51.70
21980;BME280;11154;48.558;9.234;2023-02-27T00:34:08;97817.75;;;4.19;51.69
21980;BME280;11154;48.558;9.234;2023-02-27T00:36:10;97814.84;;;4.11;52.41
21980;BME280;11154;48.558;9.234;2023-02-27T00:38:12;97819.81;;;4.03;52.29
21980;BME280;11154;48.558;9.234;2023-02-27T00:42:16;97811.94;;;4.03;52.50
21980;BME280;11154;48.558;9.234;2023-02-27T00:44:18;97818.28;;;4.01;53.14
21980;BME280;11154;48.558;9.234;2023-02-27T00:46:21;97812.41;;;3.97;52.62
21980;BME280;11154;48.558;9.234;2023-02-27T00:48:23;97815.97;;;3.96;52.68
21980;BME280;11154;48.558;9.234;2023-02-27T00:50:24;97818.84;;;3.93;53.15
21980;BME280;11154;48.558;9.234;2023-02-27T00:52:26;97814.53;;;3.92;52.29
21980;BME280;11154;48.558;9.234;2023-02-27T00:54:28;97820.28;;;3.97;53.02
21980;BME280;11154;48.558;9.234;2023-02-27T00:56:30;97814.81;;;4.00;52.76
21980;BME280;11154;48.558;9.234;2023-02-27T00:58:32;97815.50;;;4.02;52.43
21980;BME280;11154;48.558;9.234;2023-02-27T01:00:34;97813.84;;;4.01;52.48
21980;BME280;11154;48.558;9.234;2023-02-27T01:02:37;97820.56;;;4.05;52.81
21980;BME280;11154;48.558;9.234;2023-02-27T01:04:39;97816.38;;;4.03;52.33
21980;BME280;11154;48.558;9.234;2023-02-27T01:06:41;97819.09;;;4.01;52.19
21980;BME280;11154;48.558;9.234;2023-02-27T01:08:42;97820.56;;;4.05;52.39
21980;BME280;11154;48.558;9.234;2023-02-27T01:10:44;97819.09;;;4.01;52.24
21980;BME280;11154;48.558;9.234;2023-02-27T01:12:46;97811.94;;;4.03;51.95
21980;BME280;11154;48.558;9.234;2023-02-27T01:14:47;97812.41;;;3.97;52.44
21980;BME280;11154;48.558;9.234;2023-02-27T01:16:49;97812.41;;;3.97;52.34
21980;BME280;11154;48.558;9.234;2023-02-27T01:18:52;97806.97;;;3.88;52.67
21980;BME280;11154;48.558;9.234;2023-02-27T01:20:55;97806.38;;;3.84;52.84
21980;BME280;11154;48.558;9.234;2023-02-27T01:22:56;97802.66;;;3.87;52.89
21980;BME280;11154;48.558;9.234;2023-02-27T01:24:58;97810.69;;;3.85;52.96
21980;BME280;11154;48.558;9.234;2023-02-27T01:27:00;97816.88;;;3.84;52.48
21980;BME280;11154;48.558;9.234;2023-02-27T01:29:02;97816.69;;;3.87;52.97
21980;BME280;11154;48.558;9.234;2023-02-27T01:31:04;97819.91;;;3.91;52.62
21980;BME280;11154;48.558;9.234;2023-02-27T01:33:06;97816.44;;;3.90;52.63
21980;BME280;11154;48.558;9.234;2023-02-27T01:35:09;97813.69;;;3.92;52.82
21980;BME280;11154;48.558;9.234;2023-02-27T01:37:11;97813.69;;;3.92;52.41
21980;BME280;11154;48.558;9.234;2023-02-27T01:39:13;97815.25;;;3.94;52.58
21980;BME280;11154;48.558;9.234;2023-02-27T01:41:14;97808.31;;;3.93;53.22
21980;BME280;11154;48.558;9.234;2023-02-27T01:43:18;97810.09;;;3.93;52.76
21980;BME280;11154;48.558;9.234;2023-02-27T01:45:27;97813.81;;;3.90;52.44
21980;BME280;11154;48.558;9.234;2023-02-27T01:47:29;97809.72;;;3.86;52.89
21980;BME280;11154;48.558;9.234;2023-02-27T01:49:32;97808.50;;;3.79;52.82
21980;BME280;11154;48.558;9.234;2023-02-27T01:51:39;97813.63;;;3.81;53.33
21980;BME280;11154;48.558;9.234;2023-02-27T01:53:44;97818.78;;;3.82;53.08
21980;BME280;11154;48.558;9.234;2023-02-27T01:55:47;97805.63;;;3.82;53.57
21980;BME280;11154;48.558;9.234;2023-02-27T01:57:50;97806.38;;;3.84;52.69
21980;BME280;11154;48.558;9.234;2023-02-27T01:59:52;97816.75;;;3.86;52.96
21980;BME280;11154;48.558;9.234;2023-02-27T02:01:55;97760.38;;;3.56;53.57
21980;BME280;11154;48.558;9.234;2023-02-27T02:04:00;97774.03;;;2.28;59.10
21980;BME280;11154;48.558;9.234;2023-02-27T02:06:06;97781.47;;;1.97;62.22
21980;BME280;11154;48.558;9.234;2023-02-27T02:08:09;97776.69;;;1.77;63.96
21980;BME280;11154;48.558;9.234;2023-02-27T02:10:13;97781.06;;;1.64;64.74
21980;BME280;11154;48.558;9.234;2023-02-27T02:12:17;97779.78;;;1.57;65.63
21980;BME280;11154;48.558;9.234;2023-02-27T02:14:21;97778.63;;;1.49;66.46
21980;BME280;11154;48.558;9.234;2023-02-27T02:16:43;97779.78;;;1.45;66.56
21980;BME280;11154;48.558;9.234;2023-02-27T02:18:55;97779.22;;;1.40;67.22
21980;BME280;11154;48.558;9.234;2023-02-27T02:23:59;97782.22;;;1.34;68.46
21980;BME280;11154;48.558;9.234;2023-02-27T02:26:29;97783.28;;;1.32;68.33
21980;BME280;11154;48.558;9.234;2023-02-27T02:28:58;97778.25;;;1.29;68.89
21980;BME280;11154;48.558;9.234;2023-02-27T02:31:38;97778.13;;;1.30;69.04
21980;BME280;11154;48.558;9.234;2023-02-27T02:34:11;97778.88;;;1.32;69.41
21980;BME280;11154;48.558;9.234;2023-02-27T02:36:56;97775.53;;;1.30;69.46
21980;BME280;11154;48.558;9.234;2023-02-27T02:39:35;97774.06;;;1.26;69.62
21980;BME280;11154;48.558;9.234;2023-02-27T02:41:52;97776.84;;;1.23;69.93
21980;BME280;11154;48.558;9.234;2023-02-27T02:44:01;97770.88;;;1.21;70.01
21980;BME280;11154;48.558;9.234;2023-02-27T02:46:08;97774.34;;;1.22;70.22
21980;BME280;11154;48.558;9.234;2023-02-27T02:48:17;97776.22;;;1.20;70.46
21980;BME280;11154;48.558;9.234;2023-02-27T02:50:25;97775.28;;;1.21;70.53
21980;BME280;11154;48.558;9.234;2023-02-27T02:52:38;97772.75;;;1.19;70.78
21980;BME280;11154;48.558;9.234;2023-02-27T02:54:47;97778.06;;;1.18;70.88
21980;BME280;11154;48.558;9.234;2023-02-27T02:56:54;97782.47;;;1.17;70.87
21980;BME280;11154;48.558;9.234;2023-02-27T02:59:01;97779.88;;;1.17;70.84
21980;BME280;11154;48.558;9.234;2023-02-27T03:01:10;97775.47;;;1.18;71.14
21980;BME280;11154;48.558;9.234;2023-02-27T03:03:20;97773.88;;;1.15;71.15
21980;BME280;11154;48.558;9.234;2023-02-27T03:05:25;97774.84;;;1.14;71.29
21980;BME280;11154;48.558;9.234;2023-02-27T03:07:32;97781.72;;;1.15;71.66
21980;BME280;11154;48.558;9.234;2023-02-27T03:09:37;97781.94;;;1.12;71.68
21980;BME280;11154;48.558;9.234;2023-02-27T03:11:46;97776.72;;;1.12;71.86
21980;BME280;11154;48.558;9.234;2023-02-27T03:13:53;97784.44;;;1.14;71.77
21980;BME280;11154;48.558;9.234;2023-02-27T03:16:00;97780.38;;;1.10;72.03
21980;BME280;11154;48.558;9.234;2023-02-27T03:18:04;97784.84;;;1.08;72.47
21980;BME280;11154;48.558;9.234;2023-02-27T03:20:13;97783.16;;;1.07;72.69
21980;BME280;11154;48.558;9.234;2023-02-27T03:22:19;97784.75;;;1.09;72.73
21980;BME280;11154;48.558;9.234;2023-02-27T03:24:26;97789.97;;;1.09;72.46
21980;BME280;11154;48.558;9.234;2023-02-27T03:26:32;97787.47;;;1.08;72.68
21980;BME280;11154;48.558;9.234;2023-02-27T03:28:39;97784.03;;;1.07;72.95
21980;BME280;11154;48.558;9.234;2023-02-27T03:30:51;97787.56;;;1.06;73.03
21980;BME280;11154;48.558;9.234;2023-02-27T03:32:59;97785.88;;;1.05;73.28
21980;BME280;11154;48.558;9.234;2023-02-27T03:35:04;97786.94;;;1.03;73.20
21980;BME280;11154;48.558;9.234;2023-02-27T03:37:16;97779.91;;;1.03;73.49
21980;BME280;11154;48.558;9.234;2023-02-27T03:39:25;97789.44;;;1.04;73.44
21980;BME280;11154;48.558;9.234;2023-02-27T03:41:32;97788.50;;;1.05;73.39
21980;BME280;11154;48.558;9.234;2023-02-27T03:43:44;97787.56;;;1.06;73.34
21980;BME280;11154;48.558;9.234;2023-02-27T03:45:54;97789.44;;;1.04;73.38
21980;BME280;11154;48.558;9.234;2023-02-27T03:48:00;97805.25;;;1.03;73.53
21980;BME280;11154;48.558;9.234;2023-02-27T03:50:02;97804.59;;;0.99;74.04
21980;BME280;11154;48.558;9.234;2023-02-27T03:52:04;97801.78;;;1.02;74.09
21980;BME280;11154;48.558;9.234;2023-02-27T03:54:09;97810.59;;;1.01;74.04
21980;BME280;11154;48.558;9.234;2023-02-27T03:56:13;97802.75;;;1.01;74.33
21980;BME280;11154;48.558;9.234;2023-02-27T03:58:17;97807.88;;;1.03;74.30
21980;BME280;11154;48.558;9.234;2023-02-27T04:00:21;97840.22;;;1.28;73.76
21980;BME280;11154;48.558;9.234;2023-02-27T04:02:24;97847.69;;;2.25;69.05
21980;BME280;11154;48.558;9.234;2023-02-27T04:04:27;97848.56;;;2.51;66.40
21980;BME280;11154;48.558;9.234;2023-02-27T04:06:31;97851.69;;;2.68;65.09
21980;BME280;11154;48.558;9.234;2023-02-27T04:08:59;97851.25;;;2.86;63.25
21980;BME280;11154;48.558;9.234;2023-02-27T04:11:20;97844.41;;;3.09;62.48
21980;BME280;11154;48.558;9.234;2023-02-27T04:13:48;97846.91;;;3.23;60.98
21980;BME280;11154;48.558;9.234;2023-02-27T04:16:07;97852.41;;;3.31;60.50
21980;BME280;11154;48.558;9.234;2023-02-27T04:18:24;97850.09;;;3.39;60.02
21980;BME280;11154;48.558;9.234;2023-02-27T04:20:40;97857.03;;;3.40;59.71
21980;BME280;11154;48.558;9.234;2023-02-27T04:22:45;97843.56;;;3.44;60.01
21980;BME280;11154;48.558;9.234;2023-02-27T04:24:57;97855.75;;;3.45;59.61
21980;BME280;11154;48.558;9.234;2023-02-27T04:27:09;97843.34;;;3.47;59.07
21980;BME280;11154;48.558;9.234;2023-02-27T04:29:17;97851.00;;;3.50;59.47
21980;BME280;11154;48.558;9.234;2023-02-27T04:31:25;97844.81;;;3.51;58.75
21980;BME280;11154;48.558;9.234;2023-02-27T04:33:37;97851.13;;;3.49;58.79
21980;BME280;11154;48.558;9.234;2023-02-27T04:35:46;97850.88;;;3.52;58.75
21980;BME280;11154;48.558;9.234;2023-02-27T04:37:53;97845.50;;;3.53;58.84
21980;BME280;11154;48.558;9.234;2023-02-27T04:39:58;97841.50;;;3.60;58.87
21980;BME280;11154;48.558;9.234;2023-02-27T04:42:04;97847.13;;;3.56;58.21
21980;BME280;11154;48.558;9.234;2023-02-27T04:44:07;97846.03;;;3.58;58.13
21980;BME280;11154;48.558;9.234;2023-02-27T04:46:14;97852.88;;;3.60;58.20
21980;BME280;11154;48.558;9.234;2023-02-27T04:48:22;97847.28;;;3.65;57.88
21980;BME280;11154;48.558;9.234;2023-02-27T04:50:28;97839.47;;;3.63;58.20
21980;BME280;11154;48.558;9.234;2023-02-27T04:52:36;97843.59;;;3.67;58.14
21980;BME280;11154;48.558;9.234;2023-02-27T04:54:43;97846.91;;;3.69;58.24
21980;BME280;11154;48.558;9.234;2023-02-27T04:56:51;97845.84;;;3.72;57.54
21980;BME280;11154;48.558;9.234;2023-02-27T04:58:55;97843.78;;;3.64;58.43
21980;BME280;11154;48.558;9.234;2023-02-27T05:01:02;97847.13;;;3.56;58.13
21980;BME280;11154;48.558;9.234;2023-02-27T05:03:09;97849.94;;;3.53;58.13
21980;BME280;11154;48.558;9.234;2023-02-27T05:05:17;97853.97;;;3.46;59.03
21980;BME280;11154;48.558;9.234;2023-02-27T05:07:22;97845.13;;;3.47;59.21
21980;BME280;11154;48.558;9.234;2023-02-27T05:09:29;97853.03;;;3.47;58.91
21980;BME280;11154;48.558;9.234;2023-02-27T05:11:35;97857.31;;;3.48;59.23
21980;BME280;11154;48.558;9.234;2023-02-27T05:13:41;97859.97;;;3.48;59.03
21980;BME280;11154;48.558;9.234;2023-02-27T05:15:46;97859.09;;;3.47;58.97
21980;BME280;11154;48.558;9.234;2023-02-27T05:17:53;97863.72;;;3.44;58.93
21980;BME280;11154;48.558;9.234;2023-02-27T05:19:55;97860.16;;;3.45;59.48
21980;BME280;11154;48.558;9.234;2023-02-27T05:22:05;97856.38;;;3.49;58.95
21980;BME280;11154;48.558;9.234;2023-02-27T05:24:20;97859.00;;;3.49;58.53
21980;BME280;11154;48.558;9.234;2023-02-27T05:26:34;97865.97;;;3.50;58.82
21980;BME280;11154;48.558;9.234;2023-02-27T05:28:45;97863.53;;;3.47;59.04
21980;BME280;11154;48.558;9.234;2023-02-27T05:30:52;97865.41;;;3.45;58.91
21980;BME280;11154;48.558;9.234;2023-02-27T05:33:01;97861.72;;;3.47;58.47
21980;BME280;11154;48.558;9.234;2023-02-27T05:35:12;97859.00;;;3.49;58.59
21980;BME280;11154;48.558;9.234;2023-02-27T05:37:21;97857.09;;;3.51;58.49
21980;BME280;11154;48.558;9.234;2023-02-27T05:39:27;97858.66;;;3.53;58.62
21980;BME280;11154;48.558;9.234;2023-02-27T05:41:32;97864.97;;;3.51;58.57
21980;BME280;11154;48.558;9.234;2023-02-27T05:43:39;97858.44;;;3.56;58.54
21980;BME280;11154;48.558;9.234;2023-02-27T05:45:45;97864.31;;;3.59;58.28
21980;BME280;11154;48.558;9.234;2023-02-27T05:47:52;97868.84;;;3.57;58.14
21980;BME280;11154;48.558;9.234;2023-02-27T05:49:58;97868.84;;;3.57;58.20
21980;BME280;11154;48.558;9.234;2023-02-27T05:52:04;97867.06;;;3.58;58.58
21980;BME280;11154;48.558;9.234;2023-02-27T05:54:12;97866.97;;;3.59;58.32
21980;BME280;11154;48.558;9.234;2023-02-27T05:56:17;97872.22;;;3.59;58.00
21980;BME280;11154;48.558;9.234;2023-02-27T05:58:24;97870.97;;;3.53;58.20
21980;BME280;11154;48.558;9.234;2023-02-27T06:00:32;97868.59;;;3.50;58.35
21980;BME280;11154;48.558;9.234;2023-02-27T06:02:35;97870.47;;;3.48;58.23
21980;BME280;11154;48.558;9.234;2023-02-27T06:04:37;97867.34;;;3.43;59.13
21980;BME280;11154;48.558;9.234;2023-02-27T06:06:38;97870.78;;;3.43;59.24
21980;BME280;11154;48.558;9.234;2023-02-27T06:08:41;97872.47;;;3.44;58.65
21980;BME280;11154;48.558;9.234;2023-02-27T06:10:44;97887.38;;;3.44;58.67
21980;BME280;11154;48.558;9.234;2023-02-27T06:12:46;97877.63;;;3.46;59.07
21980;BME280;11154;48.558;9.234;2023-02-27T06:14:48;97876.88;;;3.44;58.30
21980;BME280;11154;48.558;9.234;2023-02-27T06:16:51;97876.38;;;3.39;58.96
21980;BME280;11154;48.558;9.234;2023-02-27T06:18:52;97882.13;;;3.44;58.53
21980;BME280;11154;48.558;9.234;2023-02-27T06:20:54;97875.94;;;3.45;58.47
21980;BME280;11154;48.558;9.234;2023-02-27T06:22:56;97877.63;;;3.46;58.50
21980;BME280;11154;48.558;9.234;2023-02-27T06:24:58;97889.81;;;3.47;58.91
21980;BME280;11154;48.558;9.234;2023-02-27T06:27:04;97890.19;;;3.53;58.73
21980;BME280;11154;48.558;9.234;2023-02-27T06:29:06;97882.22;;;3.55;57.85
21980;BME280;11154;48.558;9.234;2023-02-27T06:31:08;97888.94;;;3.58;58.36
21980;BME280;11154;48.558;9.234;2023-02-27T06:33:14;97892.69;;;3.67;57.42
21980;BME280;11154;48.558;9.234;2023-02-27T06:35:16;97895.94;;;3.70;57.29
21980;BME280;11154;48.558;9.234;2023-02-27T06:37:18;97896.38;;;3.64;57.31
21980;BME280;11154;48.558;9.234;2023-02-27T06:39:21;97891.69;;;3.57;57.79
21980;BME280;11154;48.558;9.234;2023-02-27T06:41:23;97897.75;;;3.57;57.57
21980;BME280;11154;48.558;9.234;2023-02-27T06:43:26;97899.44;;;3.58;58.12
21980;BME280;11154;48.558;9.234;2023-02-27T06:45:27;97900.72;;;3.53;57.44
21980;BME280;11154;48.558;9.234;2023-02-27T06:47:29;97899.31;;;3.60;57.76
21980;BME280;11154;48.558;9.234;2023-02-27T06:49:31;97903.53;;;3.62;57.94
21980;BME280;11154;48.558;9.234;2023-02-27T06:51:33;97905.75;;;3.68;57.53
21980;BME280;11154;48.558;9.234;2023-02-27T06:53:34;97898.44;;;3.72;57.32
21980;BME280;11154;48.558;9.234;2023-02-27T06:55:36;97906.13;;;3.75;57.27
21980;BME280;11154;48.558;9.234;2023-02-27T06:57:38;97903.38;;;3.76;57.15
21980;BME280;11154;48.558;9.234;2023-02-27T06:59:41;97915.28;;;3.69;57.28
21980;BME280;11154;48.558;9.234;2023-02-27T07:01:44;97911.59;;;3.72;57.49
21980;BME280;11154;48.558;9.234;2023-02-27T07:03:46;97909.50;;;3.77;57.15
21980;BME280;11154;48.558;9.234;2023-02-27T07:05:47;97913.91;;;3.76;57.19
21980;BME280;11154;48.558;9.234;2023-02-27T07:07:49;97918.44;;;3.74;57.06
21980;BME280;11154;48.558;9.234;2023-02-27T07:09:51;97920.84;;;3.77;57.03
21980;BME280;11154;48.558;9.234;2023-02-27T07:11:53;97919.28;;;3.75;57.57
21980;BME280;11154;48.558;9.234;2023-02-27T07:13:54;97927.16;;;4.45;56.60
21980;BME280;11154;48.558;9.234;2023-02-27T07:15:58;97929.81;;;4.45;54.42
21980;BME280;11154;48.558;9.234;2023-02-27T07:17:59;97926.72;;;4.28;55.82
21980;BME280;11154;48.558;9.234;2023-02-27T07:20:02;97929.41;;;4.15;55.70
21980;BME280;11154;48.558;9.234;2023-02-27T07:22:04;97929.56;;;4.01;56.24
21980;BME280;11154;48.558;9.234;2023-02-27T07:24:06;97933.78;;;4.04;56.39
21980;BME280;11154;48.558;9.234;2023-02-27T07:26:08;97920.72;;;4.02;56.32
21980;BME280;11154;48.558;9.234;2023-02-27T07:28:10;97926.94;;;4.01;56.59
21980;BME280;11154;48.558;9.234;2023-02-27T07:30:12;97932.31;;;4.00;56.33
21980;BME280;11154;48.558;9.234;2023-02-27T07:32:16;97930.19;;;4.05;56.42
21980;BME280;11154;48.558;9.234;2023-02-27T07:34:17;97936.31;;;4.05;55.99
21980;BME280;11154;48.558;9.234;2023-02-27T07:36:19;97932.72;;;4.06;56.02
21980;BME280;11154;48.558;9.234;2023-02-27T07:38:21;97924.94;;;4.05;56.15
21980;BME280;11154;48.558;9.234;2023-02-27T07:40:23;97935.00;;;4.11;56.32
21980;BME280;11154;48.558;9.234;2023-02-27T07:42:25;97939.44;;;4.10;55.90
21980;BME280;11154;48.558;9.234;2023-02-27T07:44:26;97950.91;;;4.09;55.43
21980;BME280;11154;48.558;9.234;2023-02-27T07:46:28;97943.13;;;4.08;55.76
21980;BME280;11154;48.558;9.234;2023-02-27T07:48:32;97947.22;;;4.12;55.24
21980;BME280;11154;48.558;9.234;2023-02-27T07:50:34;97942.34;;;4.18;54.95
21980;BME280;11154;48.558;9.234;2023-02-27T07:52:35;97941.28;;;4.21;55.39
21980;BME280;11154;48.558;9.234;2023-02-27T07:54:37;97955.06;;;4.24;55.00
21980;BME280;11154;48.558;9.234;2023-02-27T07:56:39;97936.75;;;4.23;54.84
21980;BME280;11154;48.558;9.234;2023-02-27T07:58:41;97932.53;;;4.20;55.01
21980;BME280;11154;48.558;9.234;2023-02-27T08:00:42;97946.94;;;4.27;54.74
21980;BME280;11154;48.558;9.234;2023-02-27T08:02:44;97948.63;;;4.28;54.62
21980;BME280;11154;48.558;9.234;2023-02-27T08:04:47;97950.09;;;4.32;54.63
21980;BME280;11154;48.558;9.234;2023-02-27T08:06:48;97946.59;;;4.31;53.57
21980;BME280;11154;48.558;9.234;2023-02-27T08:08:50;97943.50;;;4.37;53.84
21980;BME280;11154;48.558;9.234;2023-02-27T08:10:52;97951.69;;;4.45;54.03
21980;BME280;11154;48.558;9.234;2023-02-27T08:12:55;97945.97;;;4.51;53.90
21980;BME280;11154;48.558;9.234;2023-02-27T08:14:56;97936.66;;;4.58;53.30
21980;BME280;11154;48.558;9.234;2023-02-27T08:16:58;97946.00;;;4.62;52.72
21980;BME280;11154;48.558;9.234;2023-02-27T08:19:00;97947.56;;;4.65;52.76
21980;BME280;11154;48.558;9.234;2023-02-27T08:21:04;97951.41;;;4.72;53.63
21980;BME280;11154;48.558;9.234;2023-02-27T08:23:06;97955.25;;;4.79;53.55
21980;BME280;11154;48.558;9.234;2023-02-27T08:25:09;97945.81;;;4.76;52.28
21980;BME280;11154;48.558;9.234;2023-02-27T08:27:11;97956.22;;;4.78;52.92
21980;BME280;11154;48.558;9.234;2023-02-27T08:29:13;97952.41;;;4.82;51.84
21980;BME280;11154;48.558;9.234;2023-02-27T08:31:16;97951.06;;;4.76;51.80
21980;BME280;11154;48.558;9.234;2023-02-27T08:33:18;97960.31;;;4.82;51.62
21980;BME280;11154;48.558;9.234;2023-02-27T08:35:20;97961.03;;;4.84;51.59
21980;BME280;11154;48.558;9.234;2023-02-27T08:37:23;97967.03;;;4.86;52.25
21980;BME280;11154;48.558;9.234;2023-02-27T08:39:25;97959.84;;;4.88;51.77
21980;BME280;11154;48.558;9.234;2023-02-27T08:41:27;97964.38;;;4.86;51.01
21980;BME280;11154;48.558;9.234;2023-02-27T08:43:29;97965.94;;;4.88;51.46
21980;BME280;11154;48.558;9.234;2023-02-27T08:45:31;97960.34;;;4.93;51.28
21980;BME280;11154;48.558;9.234;2023-02-27T08:47:33;97968.03;;;4.96;50.89
21980;BME280;11154;48.558;9.234;2023-02-27T08:49:34;97954.25;;;5.03;50.07
21980;BME280;11154;48.558;9.234;2023-02-27T08:51:36;97963.50;;;5.08;50.58
21980;BME280;11154;48.558;9.234;2023-02-27T08:53:39;97962.63;;;5.08;49.81
21980;BME280;11154;48.558;9.234;2023-02-27T08:55:41;97954.88;;;5.17;49.79
21980;BME280;11154;48.558;9.234;2023-02-27T08:57:44;97960.00;;;5.19;49.07
21980;BME280;11154;48.558;9.234;2023-02-27T08:59:45;97961.81;;;5.29;49.27
21980;BME280;11154;48.558;9.234;2023-02-27T09:01:47;97958.22;;;5.41;49.24
21980;BME280;11154;48.558;9.234;2023-02-27T09:03:48;97958.75;;;5.46;49.14
21980;BME280;11154;48.558;9.234;2023-02-27T09:05:50;97961.59;;;5.54;48.51
21980;BME280;11154;48.558;9.234;2023-02-27T09:07:52;97960.28;;;5.60;48.60
21980;BME280;11154;48.558;9.234;2023-02-27T09:09:55;97966.75;;;5.67;48.73
21980;BME280;11154;48.558;9.234;2023-02-27T09:11:57;97966.41;;;5.71;48.03
21980;BME280;11154;48.558;9.234;2023-02-27T09:13:59;97963.06;;;5.58;47.80
21980;BME280;11154;48.558;9.234;2023-02-27T09:16:01;97959.69;;;5.56;47.31
21980;BME280;11154;48.558;9.234;2023-02-27T09:18:03;97966.16;;;5.63;48.23
21980;BME280;11154;48.558;9.234;2023-02-27T09:20:07;97963.53;;;5.63;47.11
21980;BME280;11154;48.558;9.234;2023-02-27T09:22:10;97962.22;;;5.79;46.88
21980;BME280;11154;48.558;9.234;2023-02-27T09:24:11;97977.69;;;5.95;46.29
21980;BME280;11154;48.558;9.234;2023-02-27T09:26:14;97958.81;;;6.10;45.11
21980;BME280;11154;48.558;9.234;2023-02-27T09:28:16;97961.78;;;6.17;45.02
21980;BME280;11154;48.558;9.234;2023-02-27T09:30:19;97964.75;;;6.34;44.93
21980;BME280;11154;48.558;9.234;2023-02-27T09:32:21;97970.56;;;6.59;44.65
21980;BME280;11154;48.558;9.234;2023-02-27T09:34:23;97959.25;;;6.57;43.46
21980;BME280;11154;48.558;9.234;2023-02-27T09:36:25;97962.41;;;6.51;43.57
21980;BME280;11154;48.558;9.234;2023-02-27T09:38:26;97962.66;;;6.80;42.69
21980;BME280;11154;48.558;9.234;2023-02-27T09:40:30;97978.34;;;6.92;42.01
21980;BME280;11154;48.558;9.234;2023-02-27T09:42:36;97959.03;;;7.01;41.93
21980;BME280;11154;48.558;9.234;2023-02-27T09:44:46;97962.53;;;7.02;42.00
21980;BME280;11154;48.558;9.234;2023-02-27T09:46:49;97971.69;;;6.98;41.80
21980;BME280;11154;48.558;9.234;2023-02-27T09:48:54;97959.28;;;6.78;41.53
21980;BME280;11154;48.558;9.234;2023-02-27T09:50:58;97957.34;;;6.80;40.86
21980;BME280;11154;48.558;9.234;2023-02-27T09:53:00;97954.50;;;6.72;41.25
21980;BME280;11154;48.558;9.234;2023-02-27T09:55:03;97964.69;;;6.76;41.36
21980;BME280;11154;48.558;9.234;2023-02-27T09:57:14;97960.00;;;7.00;41.27
21980;BME280;11154;48.558;9.234;2023-02-27T09:59:21;97954.66;;;7.31;40.90
21980;BME280;11154;48.558;9.234;2023-02-27T10:01:32;97963.06;;;7.46;39.97
21980;BME280;11154;48.558;9.234;2023-02-27T10:04:03;97965.63;;;7.57;40.03
21980;BME280;11154;48.558;9.234;2023-02-27T10:06:17;97960.84;;;7.51;38.87
21980;BME280;11154;48.558;9.234;2023-02-27T10:08:23;97957.66;;;7.27;38.72
21980;BME280;11154;48.558;9.234;2023-02-27T10:10:31;97966.38;;;6.98;39.08
21980;BME280;11154;48.558;9.234;2023-02-27T10:12:47;97966.91;;;6.71;40.10
21980;BME280;11154;48.558;9.234;2023-02-27T10:14:55;97960.44;;;6.64;40.60
21980;BME280;11154;48.558;9.234;2023-02-27T10:17:00;97965.94;;;6.72;41.26
21980;BME280;11154;48.558;9.234;2023-02-27T10:19:06;97963.16;;;6.74;39.82
21980;BME280;11154;48.558;9.234;2023-02-27T10:21:17;97970.44;;;6.81;39.18
21980;BME280;11154;48.558;9.234;2023-02-27T10:23:25;97957.50;;;6.78;37.82
21980;BME280;11154;48.558;9.234;2023-02-27T10:25:34;97980.47;;;6.67;37.05
21980;BME280;11154;48.558;9.234;2023-02-27T10:27:41;97974.69;;;6.73;36.49
21980;BME280;11154;48.558;9.234;2023-02-27T10:29:44;97983.78;;;6.80;37.40
21980;BME280;11154;48.558;9.234;2023-02-27T10:31:52;97989.34;;;6.97;38.70
21980;BME280;11154;48.558;9.234;2023-02-27T10:33:57;97978.47;;;7.11;38.80
21980;BME280;11154;48.558;9.234;2023-02-27T10:36:00;97985.22;;;7.24;37.42
21980;BME280;11154;48.558;9.234;2023-02-27T10:38:08;97998.50;;;7.34;35.66
21980;BME280;11154;48.558;9.234;2023-02-27T10:40:14;97994.50;;;7.39;34.88
21980;BME280;11154;48.558;9.234;2023-02-27T10:42:16;97998.94;;;7.39;34.53
21980;BME280;11154;48.558;9.234;2023-02-27T10:44:18;98001.78;;;7.47;34.66
21980;BME280;11154;48.558;9.234;2023-02-27T10:46:24;97992.06;;;7.57;34.82
21980;BME280;11154;48.558;9.234;2023-02-27T10:48:27;97996.03;;;7.62;34.74
21980;BME280;11154;48.558;9.234;2023-02-27T10:50:35;98008.81;;;7.57;34.31
21980;BME280;11154;48.558;9.234;2023-02-27T10:52:47;97993.59;;;7.50;34.58
21980;BME280;11154;48.558;9.234;2023-02-27T10:54:49;97991.50;;;7.53;34.41
21980;BME280;11154;48.558;9.234;2023-02-27T10:56:54;97995.97;;;7.53;34.82
21980;BME280;11154;48.558;9.234;2023-02-27T10:59:04;97997.31;;;7.47;34.80
21980;BME280;11154;48.558;9.234;2023-02-27T11:01:08;98001.97;;;7.34;34.89
21980;BME280;11154;48.558;9.234;2023-02-27T11:03:19;98001.66;;;7.28;35.15
21980;BME280;11154;48.558;9.234;2023-02-27T11:05:25;97998.31;;;7.26;35.24
21980;BME280;11154;48.558;9.234;2023-02-27T11:07:30;97990.84;;;7.31;35.42
21980;BME280;11154;48.558;9.234;2023-02-27T11:09:33;97995.84;;;7.34;35.45
21980;BME280;11154;48.558;9.234;2023-02-27T11:11:34;97985.81;;;7.28;34.96
21980;BME280;11154;48.558;9.234;2023-02-27T11:13:39;98000.56;;;7.30;35.58
21980;BME280;11154;48.558;9.234;2023-02-27T11:15:41;98007.03;;;7.37;35.58
21980;BME280;11154;48.558;9.234;2023-02-27T11:17:43;97997.84;;;7.41;35.88